createdAt,value
2018-04-18T00:00:36.549Z,101941.59
2018-04-18T00:03:04.108Z,101944.61
2018-04-18T00:05:31.725Z,101945.46
2018-04-18T00:07:59.300Z,101945.45
2018-04-18T00:10:26.896Z,101948.45
2018-04-18T00:12:54.479Z,101941.60
2018-04-18T00:15:22.063Z,101946.34
2018-04-18T00:17:49.626Z,101945.05
2018-04-18T00:20:17.216Z,101948.88
2018-04-18T00:22:44.841Z,101946.75
2018-04-18T00:25:12.400Z,101954.02
2018-04-18T00:27:40.060Z,101946.30
2018-04-18T00:30:07.671Z,101946.30
2018-04-18T00:32:35.299Z,101946.72
2018-04-18T00:35:02.876Z,101946.72
2018-04-18T00:37:30.463Z,101946.75
2018-04-18T00:39:58.068Z,101941.16
2018-04-18T00:42:25.658Z,101941.20
2018-04-18T00:44:53.252Z,101949.34
2018-04-18T00:47:20.848Z,101949.76
2018-04-18T00:49:48.428Z,101960.47
2018-04-18T00:52:15.997Z,101956.61
2018-04-18T00:54:43.565Z,101952.77
2018-04-18T00:57:11.151Z,101957.04
2018-04-18T00:59:38.712Z,101954.48
2018-04-18T01:02:06.346Z,101950.20
2018-04-18T01:04:33.907Z,101956.64
2018-04-18T01:07:01.538Z,101951.91
2018-04-18T01:09:29.101Z,101953.62
2018-04-18T01:11:56.659Z,101959.64
2018-04-18T01:14:24.270Z,101954.48
2018-04-18T01:16:51.848Z,101960.07
2018-04-18T01:19:19.410Z,101962.20
2018-04-18T01:21:47.007Z,101958.78
2018-04-18T01:24:14.588Z,101956.63
2018-04-18T01:26:42.164Z,101960.47
2018-04-18T01:29:09.731Z,101954.48
2018-04-18T01:31:37.309Z,101954.48
2018-04-18T01:34:04.868Z,101956.61
2018-04-18T01:36:32.461Z,101958.34
2018-04-18T01:39:00.026Z,101958.75
2018-04-18T01:41:27.607Z,101954.48
2018-04-18T01:43:55.179Z,101955.77
2018-04-18T01:46:22.744Z,101954.47
2018-04-18T01:48:50.328Z,101953.17
2018-04-18T01:51:17.892Z,101954.91
2018-04-18T01:53:45.456Z,101951.48
2018-04-18T01:56:13.568Z,101952.33
2018-04-18T01:58:41.139Z,101956.20
2018-04-18T02:01:08.712Z,101960.05
2018-04-18T02:03:36.300Z,101962.17
2018-04-18T02:06:03.868Z,101955.77
2018-04-18T02:08:31.431Z,101964.30
2018-04-18T02:10:59.012Z,101968.60
2018-04-18T02:13:26.637Z,101966.86
2018-04-18T02:15:54.201Z,101969.86
2018-04-18T02:18:21.773Z,101969.86
2018-04-18T02:20:49.332Z,101974.56
2018-04-18T02:23:16.896Z,101974.53
2018-04-18T02:25:44.473Z,101982.22
2018-04-18T02:28:12.430Z,101979.66
2018-04-18T02:30:40.012Z,101983.94
2018-04-18T02:33:07.579Z,101989.44
2018-04-18T02:35:35.159Z,101982.17
2018-04-18T02:38:02.724Z,101978.77
2018-04-18T02:40:30.275Z,101988.15
2018-04-18T02:42:57.830Z,101983.03
2018-04-18T02:45:25.393Z,101988.98
2018-04-18T02:47:52.948Z,101983.84
2018-04-18T02:50:20.487Z,101989.83
2018-04-18T02:52:48.104Z,101992.80
2018-04-18T02:55:15.725Z,101995.34
2018-04-18T02:57:43.283Z,101998.36
2018-04-18T03:00:10.851Z,101999.63
2018-04-18T03:02:38.480Z,102000.49
2018-04-18T03:05:06.064Z,101996.63
2018-04-18T03:07:33.644Z,102005.58
2018-04-18T03:10:01.212Z,102006.91
2018-04-18T03:12:28.787Z,102006.44
2018-04-18T03:14:56.342Z,102009.44
2018-04-18T03:17:23.948Z,102003.03
2018-04-18T03:19:51.510Z,102006.90
2018-04-18T03:22:19.073Z,102010.33
2018-04-18T03:24:46.669Z,102013.29
2018-04-18T03:27:14.249Z,102013.73
2018-04-18T03:29:41.839Z,102014.57
2018-04-18T03:32:09.394Z,102012.83
2018-04-18T03:34:36.987Z,102015.83
2018-04-18T03:37:04.561Z,102017.08
2018-04-18T03:39:32.134Z,102012.34
2018-04-18T03:41:59.688Z,102020.05
2018-04-18T03:44:27.324Z,102027.32
2018-04-18T03:46:54.980Z,102030.30
2018-04-18T03:49:22.571Z,102031.10
2018-04-18T03:51:50.146Z,102032.84
2018-04-18T03:54:17.729Z,102031.97
2018-04-18T03:56:45.349Z,102035.38
2018-04-18T03:59:12.932Z,102037.92
2018-04-18T04:01:40.518Z,102036.62
2018-04-18T04:04:08.075Z,102036.59
2018-04-18T04:06:35.634Z,102036.15
2018-04-18T04:09:03.194Z,102034.79
2018-04-18T04:11:30.742Z,102041.16
2018-04-18T04:13:58.302Z,102046.22
2018-04-18T04:16:37.655Z,102047.11
2018-04-18T04:19:17.013Z,102045.81
2018-04-18T04:21:56.324Z,102051.36
2018-04-18T04:24:35.712Z,102057.34
2018-04-18T04:27:03.313Z,102057.80
2018-04-18T04:29:31.843Z,102055.20
2018-04-18T04:31:59.430Z,102062.02
2018-04-18T04:34:27.231Z,102064.58
2018-04-18T04:36:54.781Z,102068.39
2018-04-18T04:39:22.342Z,102072.69
2018-04-18T04:41:49.942Z,102070.12
2018-04-18T04:44:17.493Z,102072.25
2018-04-18T04:46:45.087Z,102070.97
2018-04-18T04:49:12.700Z,102073.52
2018-04-18T04:51:40.300Z,102083.77
2018-04-18T04:54:07.868Z,102083.31
2018-04-18T04:56:35.511Z,102083.32
2018-04-18T04:59:03.153Z,102085.97
2018-04-18T05:01:30.728Z,102088.95
2018-04-18T05:03:58.340Z,102089.42
2018-04-18T05:06:25.919Z,102090.74
2018-04-18T05:08:53.467Z,102101.88
2018-04-18T05:11:21.113Z,102109.56
2018-04-18T05:13:48.745Z,102110.05
2018-04-18T05:16:16.329Z,102107.48
2018-04-18T05:18:43.997Z,102113.52
2018-04-18T05:21:11.602Z,102118.70
2018-04-18T05:23:39.170Z,102116.61
2018-04-18T05:26:06.754Z,102120.49
2018-04-18T05:28:34.347Z,102129.94
2018-04-18T05:31:01.909Z,102132.55
2018-04-18T05:33:29.483Z,102136.90
2018-04-18T05:35:57.044Z,102142.45
2018-04-18T05:38:24.629Z,102139.98
2018-04-18T05:40:52.213Z,102148.61
2018-04-18T05:43:19.792Z,102158.09
2018-04-18T05:45:47.380Z,102165.39
2018-04-18T05:48:14.968Z,102159.48
2018-04-18T05:50:42.522Z,102164.20
2018-04-18T05:53:10.070Z,102174.60
2018-04-18T05:55:37.622Z,102178.42
2018-04-18T05:58:05.190Z,102169.59
2018-04-18T06:00:32.772Z,102169.28
2018-04-18T06:03:00.351Z,102173.46
2018-04-18T06:05:27.914Z,102179.78
2018-04-18T06:07:55.473Z,102177.28
2018-04-18T06:10:23.037Z,102178.13
2018-04-18T06:12:50.616Z,102179.23
2018-04-18T06:15:18.213Z,102184.17
2018-04-18T06:17:45.785Z,102180.81
2018-04-18T06:20:13.368Z,102186.38
2018-04-18T06:22:40.921Z,102188.02
2018-04-18T06:25:08.480Z,102193.13
2018-04-18T06:27:36.071Z,102195.97
2018-04-18T06:30:03.653Z,102202.10
2018-04-18T06:32:31.236Z,102198.59
2018-04-18T06:34:58.872Z,102201.61
2018-04-18T06:37:26.427Z,102207.17
2018-04-18T06:39:54.012Z,102211.92
2018-04-18T06:42:21.573Z,102214.59
2018-04-18T06:44:49.158Z,102211.77
2018-04-18T06:47:16.737Z,102219.30
2018-04-18T06:49:44.305Z,102218.52
2018-04-18T06:52:11.861Z,102220.07
2018-04-18T06:54:39.456Z,102218.38
2018-04-18T06:57:07.017Z,102220.46
2018-04-18T06:59:34.574Z,102226.89
2018-04-18T07:02:02.123Z,102230.72
2018-04-18T07:04:29.685Z,102229.43
2018-04-18T07:06:57.289Z,102229.88
2018-04-18T07:09:24.870Z,102232.33
2018-04-18T07:11:52.419Z,102233.30
2018-04-18T07:14:19.980Z,102233.41
2018-04-18T07:16:47.609Z,102239.45
2018-04-18T07:19:15.218Z,102234.66
2018-04-18T07:21:42.774Z,102235.95
2018-04-18T07:24:10.367Z,102233.99
2018-04-18T07:26:37.951Z,102243.23
2018-04-18T07:29:05.501Z,102242.86
2018-04-18T07:31:33.081Z,102248.62
2018-04-18T07:34:00.649Z,102247.53
2018-04-18T07:36:28.232Z,102250.96
2018-04-18T07:38:55.827Z,102252.89
2018-04-18T07:41:23.377Z,102257.81
2018-04-18T07:43:50.952Z,102251.44
2018-04-18T07:46:18.552Z,102255.41
2018-04-18T07:48:46.120Z,102252.69
2018-04-18T07:51:13.681Z,102249.59
2018-04-18T07:53:41.303Z,102256.19
2018-04-18T07:56:08.881Z,102259.98
2018-04-18T07:58:36.467Z,102260.83
2018-04-18T08:01:04.116Z,102262.04
2018-04-18T08:03:31.697Z,102263.52
2018-04-18T08:05:59.261Z,102259.11
2018-04-18T08:08:26.869Z,102262.88
2018-04-18T08:10:54.419Z,102264.59
2018-04-18T08:13:21.981Z,102275.80
2018-04-18T08:15:49.577Z,102277.53
2018-04-18T08:18:17.131Z,102268.69
2018-04-18T08:20:44.761Z,102273.03
2018-04-18T08:23:12.346Z,102273.37
2018-04-18T08:25:39.919Z,102271.77
2018-04-18T08:28:07.509Z,102273.44
2018-04-18T08:30:35.093Z,102279.78
2018-04-18T08:33:02.687Z,102280.45
2018-04-18T08:35:30.220Z,102278.09
2018-04-18T08:37:57.797Z,102289.41
2018-04-18T08:40:25.375Z,102287.16
2018-04-18T08:42:52.972Z,102290.33
2018-04-18T08:45:20.541Z,102287.72
2018-04-18T08:47:48.118Z,102288.45
2018-04-18T08:50:15.724Z,102290.65
2018-04-18T08:52:43.462Z,102284.53
2018-04-18T08:55:11.043Z,102279.78
2018-04-18T08:57:38.617Z,102284.52
2018-04-18T09:00:06.193Z,102285.83
2018-04-18T09:02:33.768Z,102289.83
2018-04-18T09:05:01.338Z,102285.75
2018-04-18T09:07:28.912Z,102286.25
2018-04-18T09:09:56.478Z,102287.73
2018-04-18T09:12:24.086Z,102288.86
2018-04-18T09:14:51.685Z,102289.02
2018-04-18T09:17:19.341Z,102284.55
2018-04-18T09:19:46.919Z,102283.23
2018-04-18T09:22:14.536Z,102282.70
2018-04-18T09:24:42.103Z,102282.33
2018-04-18T09:27:09.719Z,102283.02
2018-04-18T09:29:37.307Z,102279.16
2018-04-18T09:32:04.868Z,102284.41
2018-04-18T09:34:32.444Z,102279.39
2018-04-18T09:36:59.982Z,102280.07
2018-04-18T09:39:27.554Z,102282.83
2018-04-18T09:41:55.127Z,102283.41
2018-04-18T09:44:22.693Z,102274.23
2018-04-18T09:46:50.269Z,102277.00
2018-04-18T09:49:17.836Z,102279.67
2018-04-18T09:51:45.400Z,102275.41
2018-04-18T09:54:12.938Z,102274.41
2018-04-18T09:56:40.493Z,102278.59
2018-04-18T09:59:08.131Z,102280.45
2018-04-18T10:01:41.342Z,102281.19
2018-04-18T10:04:09.859Z,102276.77
2018-04-18T10:06:37.427Z,102272.91
2018-04-18T10:09:06.518Z,102273.20
2018-04-18T10:11:34.094Z,102278.31
2018-04-18T10:14:01.696Z,102270.22
2018-04-18T10:16:29.254Z,102273.95
2018-04-18T10:18:56.817Z,102272.58
2018-04-18T10:21:24.409Z,102274.02
2018-04-18T10:23:51.998Z,102275.88
2018-04-18T10:26:19.572Z,102274.40
2018-04-18T10:28:47.136Z,102269.34
2018-04-18T10:31:14.713Z,102273.72
2018-04-18T10:33:42.307Z,102272.27
2018-04-18T10:36:09.862Z,102277.84
2018-04-18T10:38:37.490Z,102269.14
2018-04-18T10:41:05.054Z,102270.31
2018-04-18T10:43:32.619Z,102268.73
2018-04-18T10:46:00.244Z,102273.99
2018-04-18T10:48:27.801Z,102279.58
2018-04-18T10:50:55.389Z,102271.71
2018-04-18T10:53:23.257Z,102270.91
2018-04-18T10:55:50.851Z,102272.50
2018-04-18T10:58:18.418Z,102269.45
2018-04-18T11:00:46.007Z,102266.03
2018-04-18T11:03:13.570Z,102262.80
2018-04-18T11:05:41.144Z,102260.46
2018-04-18T11:08:09.518Z,102260.17
2018-04-18T11:10:37.083Z,102259.20
2018-04-18T11:13:04.661Z,102257.44
2018-04-18T11:15:32.924Z,102261.61
2018-04-18T11:18:00.516Z,102267.27
2018-04-18T11:20:28.089Z,102257.41
2018-04-18T11:22:55.633Z,102261.61
2018-04-18T11:25:23.189Z,102259.11
2018-04-18T11:27:50.931Z,102257.48
2018-04-18T11:30:18.549Z,102259.86
2018-04-18T11:32:46.321Z,102259.72
2018-04-18T11:35:13.882Z,102257.64
2018-04-18T11:37:42.156Z,102255.81
2018-04-18T11:40:10.713Z,102251.18
2018-04-18T11:42:38.292Z,102256.74
2018-04-18T11:45:05.864Z,102250.53
2018-04-18T11:47:33.472Z,102249.11
2018-04-18T11:50:01.025Z,102251.98
2018-04-18T11:52:28.599Z,102255.76
2018-04-18T11:54:56.175Z,102258.44
2018-04-18T11:57:23.721Z,102258.42
2018-04-18T11:59:51.404Z,102256.69
2018-04-18T12:02:18.973Z,102253.42
2018-04-18T12:04:46.561Z,102258.94
2018-04-18T12:07:14.125Z,102251.27
2018-04-18T12:09:45.681Z,102249.91
2018-04-18T12:12:13.264Z,102244.33
2018-04-18T12:14:40.809Z,102249.11
2018-04-18T12:17:08.364Z,102247.75
2018-04-18T12:19:36.776Z,102243.09
2018-04-18T12:22:04.327Z,102244.71
2018-04-18T12:24:31.871Z,102242.56
2018-04-18T12:26:59.455Z,102236.19
2018-04-18T12:29:27.021Z,102243.16
2018-04-18T12:31:54.568Z,102246.66
2018-04-18T12:34:22.162Z,102247.91
2018-04-18T12:36:49.787Z,102239.05
2018-04-18T12:39:17.371Z,102247.48
2018-04-18T12:41:44.927Z,102242.30
2018-04-18T12:44:12.508Z,102244.30
2018-04-18T12:46:40.092Z,102234.94
2018-04-18T12:49:07.660Z,102230.45
2018-04-18T12:51:35.208Z,102227.67
2018-04-18T12:54:02.758Z,102230.97
2018-04-18T12:56:30.325Z,102228.23
2018-04-18T12:58:57.888Z,102231.22
2018-04-18T13:01:25.449Z,102227.09
2018-04-18T13:03:53.008Z,102225.03
2018-04-18T13:06:20.564Z,102225.00
2018-04-18T13:08:48.165Z,102221.50
2018-04-18T13:11:15.716Z,102218.20
2018-04-18T13:13:43.275Z,102211.16
2018-04-18T13:16:10.834Z,102205.05
2018-04-18T13:18:38.394Z,102203.06
2018-04-18T13:21:05.945Z,102206.69
2018-04-18T13:23:33.514Z,102205.56
2018-04-18T13:26:01.055Z,102202.61
2018-04-18T13:28:28.633Z,102202.58
2018-04-18T13:30:56.188Z,102198.44
2018-04-18T13:33:23.774Z,102204.05
2018-04-18T13:35:52.118Z,102193.98
2018-04-18T13:38:19.687Z,102198.83
2018-04-18T13:40:47.253Z,102198.44
2018-04-18T13:43:14.829Z,102202.75
2018-04-18T13:45:42.442Z,102198.19
2018-04-18T13:48:09.984Z,102198.28
2018-04-18T13:50:37.549Z,102198.12
2018-04-18T13:53:05.124Z,102195.63
2018-04-18T13:55:32.684Z,102194.33
2018-04-18T13:58:00.293Z,102191.55
2018-04-18T14:00:27.862Z,102194.16
2018-04-18T14:02:55.419Z,102194.48
2018-04-18T14:05:22.974Z,102196.59
2018-04-18T14:07:50.588Z,102188.47
2018-04-18T14:10:18.123Z,102190.05
2018-04-18T14:12:45.682Z,102192.13
2018-04-18T14:15:14.880Z,102190.13
2018-04-18T14:17:42.469Z,102183.81
2018-04-18T14:20:10.017Z,102177.16
2018-04-18T14:22:37.580Z,102184.74
2018-04-18T14:25:05.148Z,102179.38
2018-04-18T14:27:32.815Z,102179.04
2018-04-18T14:30:00.520Z,102182.55
2018-04-18T14:32:28.071Z,102179.92
2018-04-18T14:34:55.661Z,102172.47
2018-04-18T14:37:23.239Z,102178.64
2018-04-18T14:39:50.824Z,102182.78
2018-04-18T14:42:18.498Z,102183.45
2018-04-18T14:44:46.046Z,102175.83
2018-04-18T14:47:13.594Z,102174.15
2018-04-18T14:49:41.142Z,102168.27
2018-04-18T14:52:08.712Z,102166.42
2018-04-18T14:54:36.287Z,102165.52
2018-04-18T14:57:03.857Z,102164.14
2018-04-18T14:59:31.415Z,102159.16
2018-04-18T15:01:58.990Z,102164.09
2018-04-18T15:04:26.554Z,102163.84
2018-04-18T15:06:54.108Z,102158.06
2018-04-18T15:09:21.664Z,102155.33
2018-04-18T15:11:49.233Z,102156.36
2018-04-18T15:14:16.815Z,102162.11
2018-04-18T15:16:44.376Z,102152.72
2018-04-18T15:19:11.929Z,102152.96
2018-04-18T15:21:39.502Z,102153.00
2018-04-18T15:24:07.089Z,102152.34
2018-04-18T15:26:34.654Z,102144.38
2018-04-18T15:29:02.205Z,102147.94
2018-04-18T15:31:29.768Z,102147.89
2018-04-18T15:33:57.328Z,102146.92
2018-04-18T15:36:24.886Z,102142.86
2018-04-18T15:38:52.479Z,102148.27
2018-04-18T15:41:20.057Z,102143.57
2018-04-18T15:43:47.636Z,102149.49
2018-04-18T15:46:15.198Z,102144.81
2018-04-18T15:48:42.761Z,102143.39
2018-04-18T15:51:10.332Z,102136.64
2018-04-18T15:53:37.925Z,102139.62
2018-04-18T15:56:05.494Z,102137.69
2018-04-18T15:58:33.116Z,102136.94
2018-04-18T16:01:00.678Z,102134.23
2018-04-18T16:03:28.238Z,102131.66
2018-04-18T16:05:55.814Z,102138.25
2018-04-18T16:08:23.362Z,102138.00
2018-04-18T16:10:50.965Z,102138.14
2018-04-18T16:13:18.523Z,102137.56
2018-04-18T16:15:46.079Z,102133.38
2018-04-18T16:18:13.700Z,102140.11
2018-04-18T16:20:41.277Z,102125.38
2018-04-18T16:23:08.850Z,102133.59
2018-04-18T16:25:36.497Z,102134.67
2018-04-18T16:28:04.063Z,102129.27
2018-04-18T16:30:41.601Z,102128.22
2018-04-18T16:33:09.173Z,102133.20
2018-04-18T16:35:36.779Z,102123.25
2018-04-18T16:38:04.337Z,102124.08
2018-04-18T16:40:31.910Z,102118.02
2018-04-18T16:42:59.503Z,102118.91
2018-04-18T16:45:27.129Z,102117.59
2018-04-18T16:47:54.730Z,102121.67
2018-04-18T16:50:22.354Z,102122.56
2018-04-18T16:52:49.913Z,102117.39
2018-04-18T16:55:17.474Z,102120.33
2018-04-18T16:57:45.034Z,102124.18
2018-04-18T17:00:12.668Z,102120.73
2018-04-18T17:02:40.256Z,102124.60
2018-04-18T17:05:07.964Z,102120.22
2018-04-18T17:07:35.530Z,102119.02
2018-04-18T17:10:03.328Z,102120.95
2018-04-18T17:12:30.934Z,102117.09
2018-04-18T17:14:58.520Z,102112.77
2018-04-18T17:17:26.086Z,102112.02
2018-04-18T17:19:53.845Z,102112.19
2018-04-18T17:22:21.406Z,102111.13
2018-04-18T17:24:48.993Z,102118.50
2018-04-18T17:27:16.566Z,102114.90
2018-04-18T17:29:44.134Z,102110.30
2018-04-18T17:32:11.693Z,102115.72
2018-04-18T17:34:39.268Z,102116.67
2018-04-18T17:37:06.859Z,102118.70
2018-04-18T17:39:34.528Z,102118.80
2018-04-18T17:42:02.115Z,102122.38
2018-04-18T17:44:29.712Z,102115.47
2018-04-18T17:46:57.879Z,102123.91
2018-04-18T17:49:25.424Z,102129.16
2018-04-18T17:51:53.012Z,102129.92
2018-04-18T17:54:20.592Z,102130.81
2018-04-18T17:56:48.171Z,102127.20
2018-04-18T17:59:15.735Z,102130.02
2018-04-18T18:01:44.881Z,102132.19
2018-04-18T18:04:13.870Z,102135.41
2018-04-18T18:06:41.468Z,102135.23
2018-04-18T18:09:09.379Z,102136.35
2018-04-18T18:11:36.948Z,102146.33
2018-04-18T18:14:04.520Z,102143.48
2018-04-18T18:16:32.552Z,102145.81
2018-04-18T18:19:00.161Z,102151.66
2018-04-18T18:21:27.952Z,102154.30
2018-04-18T18:23:55.687Z,102150.69
2018-04-18T18:26:23.250Z,102151.76
2018-04-18T18:28:51.084Z,102153.11
2018-04-18T18:31:18.966Z,102152.58
2018-04-18T18:33:46.683Z,102152.37
2018-04-18T18:36:14.468Z,102154.36
2018-04-18T18:38:42.071Z,102152.93
2018-04-18T18:41:09.685Z,102153.02
2018-04-18T18:43:37.592Z,102156.53
2018-04-18T18:46:05.166Z,102163.06
2018-04-18T18:48:32.741Z,102158.33
2018-04-18T18:51:00.313Z,102161.08
2018-04-18T18:53:27.868Z,102169.88
2018-04-18T18:55:55.496Z,102164.80
2018-04-18T18:58:23.135Z,102171.18
2018-04-18T19:00:50.737Z,102170.67
2018-04-18T19:03:18.322Z,102174.56
2018-04-18T19:05:45.953Z,102174.77
2018-04-18T19:08:13.730Z,102174.53
2018-04-18T19:10:41.282Z,102170.48
2018-04-18T19:13:08.856Z,102171.08
2018-04-18T19:15:36.441Z,102170.72
2018-04-18T19:18:04.033Z,102172.55
2018-04-18T19:20:31.629Z,102174.01
2018-04-18T19:22:59.237Z,102170.92
2018-04-18T19:25:27.017Z,102170.76
2018-04-18T19:27:54.596Z,102171.78
2018-04-18T19:30:22.163Z,102177.19
2018-04-18T19:32:49.741Z,102175.80
2018-04-18T19:35:17.347Z,102178.05
2018-04-18T19:37:44.915Z,102176.60
2018-04-18T19:40:12.537Z,102176.98
2018-04-18T19:42:40.133Z,102176.22
2018-04-18T19:50:58.339Z,102172.53
2018-04-18T19:53:25.984Z,102171.80
2018-04-18T19:55:53.553Z,102174.97
2018-04-18T19:58:21.144Z,102177.16
2018-04-18T20:00:48.739Z,102180.34
2018-04-18T20:03:16.341Z,102181.60
2018-04-18T20:05:43.958Z,102177.41
2018-04-18T20:08:11.577Z,102179.66
2018-04-18T20:10:39.159Z,102181.12
2018-04-18T20:13:06.725Z,102185.25
2018-04-18T20:15:34.291Z,102181.39
2018-04-18T20:18:01.866Z,102182.66
2018-04-18T20:20:29.494Z,102186.20
2018-04-18T20:22:57.068Z,102184.02
2018-04-18T20:25:24.678Z,102187.09
2018-04-18T20:27:52.305Z,102183.70
2018-04-18T20:30:19.929Z,102191.95
2018-04-18T20:32:47.653Z,102189.95
2018-04-18T20:35:15.213Z,102192.59
2018-04-18T20:37:42.774Z,102191.47
2018-04-18T20:40:10.337Z,102191.05
2018-04-18T20:42:37.896Z,102190.78
2018-04-18T20:45:05.728Z,102191.31
2018-04-18T20:47:33.309Z,102195.95
2018-04-18T20:50:00.908Z,102203.46
2018-04-18T20:52:28.508Z,102198.38
2018-04-18T20:54:56.103Z,102198.47
2018-04-18T20:57:23.667Z,102200.31
2018-04-18T20:59:51.221Z,102196.41
2018-04-18T21:02:18.798Z,102198.90
2018-04-18T21:04:46.374Z,102197.58
2018-04-18T21:07:13.942Z,102201.16
2018-04-18T21:09:41.566Z,102195.23
2018-04-18T21:12:09.149Z,102200.56
2018-04-18T21:14:36.760Z,102204.19
2018-04-18T21:17:04.331Z,102209.34
2018-04-18T21:19:31.890Z,102210.32
2018-04-18T21:21:59.467Z,102214.66
2018-04-18T21:24:27.095Z,102206.12
2018-04-18T21:26:54.666Z,102204.16
2018-04-18T21:29:22.239Z,102209.74
2018-04-18T21:31:49.808Z,102206.87
2018-04-18T21:34:17.410Z,102204.42
2018-04-18T21:36:44.965Z,102206.22
2018-04-18T21:39:12.547Z,102212.71
2018-04-18T21:41:40.128Z,102216.69
2018-04-18T21:44:07.685Z,102216.28
2018-04-18T21:46:35.260Z,102213.59
2018-04-18T21:49:02.842Z,102216.64
2018-04-18T21:51:30.439Z,102212.78
2018-04-18T21:53:57.994Z,102210.79
2018-04-18T21:56:25.579Z,102217.22
2018-04-18T21:58:53.161Z,102217.32
2018-04-18T22:10:09.118Z,102210.36
2018-04-18T22:12:36.693Z,102208.97
2018-04-18T22:15:04.282Z,102207.27
2018-04-18T22:17:31.842Z,102203.48
2018-04-18T22:19:59.407Z,102201.28
2018-04-18T22:22:26.988Z,102201.33
2018-04-18T22:24:54.552Z,102202.28
2018-04-18T22:27:22.103Z,102212.62
2018-04-18T22:29:49.688Z,102210.05
2018-04-18T22:32:17.276Z,102207.45
2018-04-18T22:34:44.869Z,102201.50
2018-04-18T22:37:12.521Z,102207.12
2018-04-18T22:39:40.118Z,102203.30
2018-04-18T22:42:07.684Z,102205.95
2018-04-18T22:44:35.257Z,102211.11
2018-04-18T22:47:02.853Z,102204.66
2018-04-18T22:49:30.429Z,102210.75
2018-04-18T22:51:58.011Z,102210.36
2018-04-18T22:54:25.585Z,102207.33
2018-04-18T22:56:53.193Z,102212.89
2018-04-18T22:59:20.801Z,102218.05
2018-04-18T23:01:48.368Z,102226.69
2018-04-18T23:04:15.972Z,102224.52
2018-04-18T23:06:43.536Z,102228.83
2018-04-18T23:09:11.114Z,102221.03
2018-04-18T23:11:38.692Z,102222.30
2018-04-18T23:14:06.244Z,102221.83
2018-04-18T23:16:33.830Z,102215.47
2018-04-18T23:19:01.427Z,102212.92
2018-04-18T23:21:29.004Z,102220.32
2018-04-18T23:23:56.591Z,102216.89
2018-04-18T23:26:24.160Z,102219.06
2018-04-18T23:28:51.726Z,102217.30
2018-04-18T23:31:19.304Z,102221.17
2018-04-18T23:33:46.858Z,102212.63
2018-04-18T23:36:14.469Z,102216.50
2018-04-18T23:38:42.026Z,102217.78
2018-04-18T23:41:09.586Z,102210.09
2018-04-18T23:43:37.206Z,102213.58
2018-04-18T23:46:04.772Z,102208.86
2018-04-18T23:48:32.354Z,102204.57
2018-04-18T23:50:59.901Z,102208.01
2018-04-18T23:53:27.468Z,102201.12
2018-04-18T23:55:55.033Z,102201.56
2018-04-18T23:58:22.586Z,102200.69
